Assaria, Kansas
Current Conditions -  °F | °C
As of 5:53 PM on Sunday 23 Nov 2014 (Local Time) from KSLN Reporting Station
Clear Clear  
Wind Chill: 36°   Ceiling: Unl
Heat Index: 43°   Visibility: 10mi
Dew Point: 36°   Wind: 13mph
Humidity: 76%   Direction: 330°NNW
Pressure: 29.61"   Gusts: NA
Location:  38.68°N, 97.6°W
Report Text: KSLN 232353Z 33011KT 10SM CLR 06/02 A2961 RMK AO2 SLP028 60009 T00610022 10089 20056 53028
Loading
Personal Weather Stations






























Interactive Weather Map New forecast layout! Learn more

10-Day Weather Forecast

Advertisements
Track Severe Weather on mobile